createdAt,value
2018-08-25T00:01:35.573Z,4.00
2018-08-25T00:04:03.904Z,4.97
2018-08-25T00:06:32.692Z,6.22
2018-08-25T00:09:00.903Z,3.87
2018-08-25T00:11:29.136Z,5.33
2018-08-25T00:13:57.456Z,4.60
2018-08-25T00:16:25.695Z,4.23
2018-08-25T00:18:53.935Z,6.37
2018-08-25T00:21:22.230Z,4.00
2018-08-25T00:23:50.499Z,4.30
2018-08-25T00:26:19.024Z,6.60
2018-08-25T00:28:47.365Z,6.87
2018-08-25T00:31:21.968Z,5.97
2018-08-25T00:33:50.401Z,3.40
2018-08-25T00:36:18.729Z,5.85
2018-08-25T00:38:47.049Z,6.10
2018-08-25T00:41:15.461Z,4.40
2018-08-25T00:43:45.088Z,6.10
2018-08-25T00:46:13.762Z,3.27
2018-08-25T00:48:43.308Z,3.60
2018-08-25T00:51:11.556Z,7.63
2018-08-25T00:53:39.838Z,5.03
2018-08-25T00:56:08.072Z,3.85
2018-08-25T00:58:37.031Z,4.57
2018-08-25T01:01:05.435Z,3.03
2018-08-25T01:03:33.859Z,6.03
2018-08-25T01:06:02.163Z,5.17
2018-08-25T01:08:30.492Z,3.87
2018-08-25T01:10:58.750Z,4.33
2018-08-25T01:13:26.963Z,7.23
2018-08-25T01:15:55.220Z,4.58
2018-08-25T01:18:23.422Z,3.37
2018-08-25T01:20:51.708Z,5.10
2018-08-25T01:23:20.035Z,5.47
2018-08-25T01:25:48.336Z,4.13
2018-08-25T01:28:16.949Z,3.83
2018-08-25T01:30:45.434Z,2.23
2018-08-25T01:33:15.319Z,4.03
2018-08-25T01:35:44.630Z,4.13
2018-08-25T01:38:13.860Z,4.20
2018-08-25T01:40:42.495Z,2.87
2018-08-25T01:43:10.692Z,6.08
2018-08-25T01:45:38.934Z,3.53
2018-08-25T01:48:07.216Z,4.93
2018-08-25T01:50:35.548Z,5.73
2018-08-25T01:53:04.027Z,3.50
2018-08-25T01:55:32.400Z,4.03
2018-08-25T01:58:00.641Z,5.15
2018-08-25T02:00:28.901Z,4.67
2018-08-25T02:02:57.160Z,3.07
2018-08-25T02:05:25.387Z,3.62
2018-08-25T02:07:53.641Z,4.47
2018-08-25T02:10:21.936Z,5.33
2018-08-25T02:12:50.264Z,3.25
2018-08-25T02:15:18.685Z,4.97
2018-08-25T02:17:47.302Z,5.72
2018-08-25T02:20:15.697Z,5.53
2018-08-25T02:22:44.397Z,4.85
2018-08-25T02:25:13.206Z,4.47
2018-08-25T02:27:41.394Z,4.83
2018-08-25T02:30:09.605Z,4.33
2018-08-25T02:32:37.812Z,6.33
2018-08-25T02:35:06.184Z,6.50
2018-08-25T02:37:34.538Z,9.13
2018-08-25T02:40:02.894Z,5.90
2018-08-25T02:42:31.333Z,5.00
2018-08-25T02:44:59.577Z,7.13
2018-08-25T02:47:27.797Z,6.93
2018-08-25T02:49:56.085Z,7.12
2018-08-25T02:52:24.348Z,9.07
2018-08-25T02:54:52.625Z,8.60
2018-08-25T02:57:20.892Z,6.58
2018-08-25T02:59:49.282Z,5.73
2018-08-25T03:02:18.688Z,6.80
2018-08-25T03:04:47.241Z,6.00
2018-08-25T03:07:16.158Z,7.17
2018-08-25T03:09:45.431Z,9.07
2018-08-25T03:12:13.986Z,7.58
2018-08-25T03:14:42.212Z,6.13
2018-08-25T03:17:10.437Z,6.33
2018-08-25T03:19:38.706Z,6.80
2018-08-25T03:22:07.037Z,7.60
2018-08-25T03:24:35.404Z,4.97
2018-08-25T03:27:04.753Z,5.70
2018-08-25T03:29:33.040Z,6.37
2018-08-25T03:32:01.286Z,5.53
2018-08-25T03:43:08.728Z,9.57
2018-08-25T03:45:37.067Z,6.10
2018-08-25T03:48:05.397Z,6.20
2018-08-25T03:50:33.741Z,5.97
2018-08-25T03:53:01.997Z,7.55
2018-08-25T03:55:30.300Z,6.95
2018-08-25T03:57:58.528Z,5.97
2018-08-25T04:00:26.771Z,9.30
2018-08-25T04:02:55.009Z,8.03
2018-08-25T04:05:23.307Z,5.83
2018-08-25T04:07:51.556Z,6.07
2018-08-25T04:10:20.041Z,7.30
2018-08-25T04:12:48.521Z,8.33
2018-08-25T04:15:16.871Z,5.40
2018-08-25T04:17:45.416Z,8.87
2018-08-25T04:20:14.940Z,6.40
2018-08-25T04:22:52.800Z,8.17
2018-08-25T04:25:21.125Z,7.80
2018-08-25T04:27:49.982Z,6.40
2018-08-25T04:30:18.305Z,8.73
2018-08-25T04:32:46.650Z,6.05
2018-08-25T04:35:15.114Z,30.77
2018-08-25T04:37:44.389Z,18.48
2018-08-25T04:40:13.673Z,6.47
2018-08-25T04:42:42.598Z,4.60
2018-08-25T04:45:10.787Z,7.90
2018-08-25T04:47:39.021Z,6.23
2018-08-25T04:50:07.319Z,6.90
2018-08-25T04:52:35.600Z,7.03
2018-08-25T04:55:03.893Z,9.23
2018-08-25T04:57:32.185Z,9.23
2018-08-25T05:00:00.430Z,5.80
2018-08-25T05:02:28.669Z,8.97
2018-08-25T05:04:57.019Z,5.05
2018-08-25T05:07:25.233Z,6.00
2018-08-25T05:09:53.488Z,6.07
2018-08-25T05:12:21.803Z,9.78
2018-08-25T05:14:50.157Z,6.20
2018-08-25T05:17:18.505Z,5.08
2018-08-25T05:19:47.046Z,5.93
2018-08-25T05:22:15.518Z,5.72
2018-08-25T05:24:44.660Z,6.43
2018-08-25T05:27:13.023Z,9.73
2018-08-25T05:29:42.964Z,8.58
2018-08-25T05:32:11.316Z,8.90
2018-08-25T05:34:44.294Z,7.72
2018-08-25T05:37:13.668Z,9.90
2018-08-25T05:39:42.712Z,8.80
2018-08-25T05:42:10.964Z,8.33
2018-08-25T05:44:39.231Z,10.37
2018-08-25T05:47:07.516Z,7.90
2018-08-25T05:49:35.907Z,7.57
2018-08-25T05:52:04.360Z,5.92
2018-08-25T05:54:32.626Z,5.63
2018-08-25T05:57:00.905Z,15.53
2018-08-25T05:59:29.344Z,8.70
2018-08-25T06:01:57.672Z,10.75
2018-08-25T06:04:25.931Z,8.67
2018-08-25T06:06:54.266Z,10.53
2018-08-25T06:09:22.627Z,8.87
2018-08-25T06:11:50.972Z,6.55
2018-08-25T06:14:19.467Z,9.27
2018-08-25T06:16:48.592Z,7.17
2018-08-25T06:19:17.219Z,12.67
2018-08-25T06:21:46.322Z,8.23
2018-08-25T06:24:15.965Z,8.27
2018-08-25T06:26:45.454Z,7.97
2018-08-25T06:29:14.866Z,10.23
2018-08-25T06:31:44.235Z,7.53
2018-08-25T06:34:13.652Z,5.53
2018-08-25T06:36:48.546Z,11.27
2018-08-25T06:39:17.982Z,7.93
2018-08-25T06:41:46.299Z,10.23
2018-08-25T06:44:14.572Z,7.80
2018-08-25T06:46:42.946Z,7.65
2018-08-25T06:49:11.377Z,7.30
2018-08-25T06:51:39.876Z,7.85
2018-08-25T06:54:08.270Z,9.53
2018-08-25T06:56:36.498Z,12.50
2018-08-25T06:59:05.252Z,13.67
2018-08-25T07:01:33.559Z,8.17
2018-08-25T07:04:01.884Z,11.23
2018-08-25T07:06:30.169Z,9.53
2018-08-25T07:08:58.600Z,8.80
2018-08-25T07:11:27.019Z,10.72
2018-08-25T07:13:55.363Z,15.13
2018-08-25T07:16:23.595Z,9.00
2018-08-25T07:18:51.859Z,9.67
2018-08-25T07:21:20.134Z,9.80
2018-08-25T07:23:48.603Z,8.98
2018-08-25T07:26:17.003Z,8.13
2018-08-25T07:28:45.217Z,10.65
2018-08-25T07:31:13.818Z,5.95
2018-08-25T07:33:42.180Z,7.23
2018-08-25T07:36:10.425Z,7.37
2018-08-25T07:38:38.704Z,7.15
2018-08-25T07:41:07.047Z,8.97
2018-08-25T07:43:35.322Z,8.35
2018-08-25T07:46:03.536Z,9.48
2018-08-25T07:48:31.784Z,10.63
2018-08-25T07:50:59.979Z,7.07
2018-08-25T07:53:28.448Z,6.90
2018-08-25T07:55:57.506Z,6.73
2018-08-25T07:58:25.831Z,6.50
2018-08-25T08:00:54.073Z,5.93
2018-08-25T08:03:22.432Z,5.80
2018-08-25T08:05:50.860Z,6.27
2018-08-25T08:08:19.243Z,6.40
2018-08-25T08:10:48.735Z,6.47
2018-08-25T08:13:17.152Z,5.42
2018-08-25T08:15:45.675Z,3.37
2018-08-25T08:18:14.451Z,2.50
2018-08-25T08:20:43.166Z,3.37
2018-08-25T08:23:11.547Z,2.58
2018-08-25T08:25:39.797Z,3.83
2018-08-25T08:28:08.184Z,5.47
2018-08-25T08:30:36.370Z,5.13
2018-08-25T08:33:04.714Z,3.90
2018-08-25T08:35:32.898Z,5.50
2018-08-25T08:38:02.070Z,4.30
2018-08-25T08:40:30.306Z,4.10
2018-08-25T08:43:00.639Z,5.00
2018-08-25T08:45:32.553Z,3.43
2018-08-25T08:48:00.781Z,4.90
2018-08-25T08:50:29.121Z,3.87
2018-08-25T08:52:57.306Z,3.92
2018-08-25T08:55:25.577Z,5.87
2018-08-25T08:57:53.870Z,3.80
2018-08-25T09:00:22.099Z,4.85
2018-08-25T09:02:50.469Z,3.23
2018-08-25T09:05:18.739Z,2.60
2018-08-25T09:07:47.060Z,5.65
2018-08-25T09:10:15.406Z,2.67
2018-08-25T09:12:43.755Z,2.50
2018-08-25T09:15:12.026Z,4.15
2018-08-25T09:17:40.276Z,3.02
2018-08-25T09:20:08.595Z,2.60
2018-08-25T09:22:36.828Z,4.30
2018-08-25T09:25:05.139Z,3.50
2018-08-25T09:27:33.521Z,2.43
2018-08-25T09:30:01.744Z,3.60
2018-08-25T09:32:30.108Z,2.20
2018-08-25T09:34:58.416Z,2.90
2018-08-25T09:37:26.626Z,3.77
2018-08-25T09:39:55.100Z,3.62
2018-08-25T09:42:28.849Z,4.13
2018-08-25T09:44:57.143Z,5.47
2018-08-25T09:47:25.336Z,3.63
2018-08-25T09:49:53.573Z,4.55
2018-08-25T09:52:21.750Z,2.23
2018-08-25T09:54:49.988Z,4.90
2018-08-25T09:57:18.152Z,5.35
2018-08-25T09:59:46.386Z,2.90
2018-08-25T10:02:14.680Z,4.90
2018-08-25T10:04:42.953Z,3.27
2018-08-25T10:07:11.285Z,2.87
2018-08-25T10:09:39.568Z,5.13
2018-08-25T10:12:07.998Z,3.55
2018-08-25T10:14:36.614Z,2.87
2018-08-25T10:17:05.114Z,3.77
2018-08-25T10:19:33.389Z,3.03
2018-08-25T10:22:01.909Z,3.65
2018-08-25T10:24:30.339Z,3.43
2018-08-25T10:26:58.665Z,3.87
2018-08-25T10:29:27.129Z,3.33
2018-08-25T10:31:55.653Z,2.65
2018-08-25T10:34:24.155Z,2.00
2018-08-25T10:36:52.468Z,4.78
2018-08-25T10:39:20.801Z,1.67
2018-08-25T10:41:49.467Z,2.80
2018-08-25T10:44:17.696Z,2.30
2018-08-25T10:46:46.125Z,2.60
2018-08-25T10:49:14.373Z,2.00
2018-08-25T10:51:42.739Z,2.30
2018-08-25T10:54:11.086Z,1.30
2018-08-25T10:56:39.444Z,1.62
2018-08-25T10:59:08.026Z,1.20
2018-08-25T11:01:43.171Z,1.45
2018-08-25T11:04:11.703Z,1.97
2018-08-25T11:06:40.210Z,1.50
2018-08-25T11:09:11.514Z,2.37
2018-08-25T11:11:40.057Z,1.43
2018-08-25T11:14:08.673Z,1.87
2018-08-25T11:16:37.182Z,1.33
2018-08-25T11:19:05.744Z,1.40
2018-08-25T11:21:34.077Z,1.62
2018-08-25T11:24:02.819Z,2.13
2018-08-25T11:26:31.240Z,2.50
2018-08-25T11:28:59.763Z,3.17
2018-08-25T11:31:28.197Z,3.13
2018-08-25T11:33:56.661Z,1.77
2018-08-25T11:36:24.913Z,2.00
2018-08-25T11:38:53.329Z,1.40
2018-08-25T11:41:21.739Z,1.55
2018-08-25T11:43:50.066Z,2.00
2018-08-25T11:46:18.570Z,1.80
2018-08-25T11:48:46.874Z,1.83
2018-08-25T11:51:15.286Z,1.73
2018-08-25T11:53:43.638Z,1.33
2018-08-25T11:56:12.021Z,1.47
2018-08-25T11:58:40.517Z,1.90
2018-08-25T12:01:08.945Z,1.42
2018-08-25T12:03:37.352Z,1.57
2018-08-25T12:06:05.751Z,2.73
2018-08-25T12:08:34.121Z,1.67
2018-08-25T12:11:02.488Z,1.60
2018-08-25T12:13:31.854Z,1.60
2018-08-25T12:16:00.160Z,1.73
2018-08-25T12:18:28.561Z,2.90
2018-08-25T12:20:57.185Z,1.73
2018-08-25T12:23:25.628Z,2.10
2018-08-25T12:25:53.846Z,2.03
2018-08-25T12:28:22.088Z,2.20
2018-08-25T12:30:50.488Z,1.67
2018-08-25T12:33:18.867Z,1.33
2018-08-25T12:35:47.308Z,3.72
2018-08-25T12:38:16.554Z,1.33
2018-08-25T12:40:44.895Z,1.53
2018-08-25T12:43:13.424Z,2.42
2018-08-25T12:45:42.768Z,1.97
2018-08-25T12:48:11.012Z,1.80
2018-08-25T12:50:39.453Z,1.33
2018-08-25T12:53:07.827Z,1.43
2018-08-25T12:55:36.192Z,1.90
2018-08-25T12:58:04.876Z,1.03
2018-08-25T13:00:33.405Z,1.40
2018-08-25T13:03:01.738Z,2.33
2018-08-25T13:05:30.092Z,2.67
2018-08-25T13:07:58.379Z,1.83
2018-08-25T13:10:27.156Z,1.57
2018-08-25T13:12:56.650Z,2.07
2018-08-25T13:15:24.922Z,2.65
2018-08-25T13:17:53.253Z,1.43
2018-08-25T13:20:21.528Z,2.42
2018-08-25T13:22:51.025Z,2.37
2018-08-25T13:25:19.360Z,1.83
2018-08-25T13:27:47.680Z,2.35
2018-08-25T13:30:16.133Z,1.63
2018-08-25T13:32:44.446Z,1.93
2018-08-25T13:35:12.718Z,1.43
2018-08-25T13:37:41.137Z,1.17
2018-08-25T13:40:09.524Z,1.43
2018-08-25T13:42:37.853Z,1.43
2018-08-25T13:45:06.321Z,1.87
2018-08-25T13:47:34.679Z,1.70
2018-08-25T13:50:03.060Z,2.10
2018-08-25T13:52:31.367Z,1.90
2018-08-25T13:54:59.641Z,2.50
2018-08-25T13:57:27.943Z,2.77
2018-08-25T13:59:56.187Z,1.17
2018-08-25T14:02:24.547Z,2.03
2018-08-25T14:04:52.824Z,1.40
2018-08-25T14:07:21.096Z,2.08
2018-08-25T14:09:49.406Z,2.77
2018-08-25T14:12:17.675Z,2.33
2018-08-25T14:14:45.946Z,1.10
2018-08-25T14:17:14.243Z,2.10
2018-08-25T14:19:42.537Z,2.70
2018-08-25T14:22:10.831Z,1.47
2018-08-25T14:24:39.107Z,2.00
2018-08-25T14:27:07.422Z,1.83
2018-08-25T14:29:35.744Z,1.40
2018-08-25T14:32:04.128Z,3.10
2018-08-25T14:34:32.411Z,1.47
2018-08-25T14:37:01.843Z,1.83
2018-08-25T14:39:30.131Z,1.30
2018-08-25T14:41:58.554Z,2.12
2018-08-25T14:44:26.859Z,1.93
2018-08-25T14:46:56.138Z,1.80
2018-08-25T14:49:24.507Z,2.15
2018-08-25T14:51:53.736Z,2.80
2018-08-25T14:54:22.013Z,1.90
2018-08-25T14:56:50.303Z,3.67
2018-08-25T14:59:18.558Z,2.07
2018-08-25T15:01:46.944Z,1.90
2018-08-25T15:04:15.220Z,2.65
2018-08-25T15:06:43.708Z,1.70
2018-08-25T15:09:13.617Z,2.27
2018-08-25T15:11:42.688Z,4.60
2018-08-25T15:14:11.080Z,1.53
2018-08-25T15:16:39.365Z,1.82
2018-08-25T15:19:07.862Z,1.63
2018-08-25T15:21:39.391Z,1.60
2018-08-25T15:24:07.739Z,1.57
2018-08-25T15:26:36.051Z,1.98
2018-08-25T15:29:05.485Z,2.20
2018-08-25T15:31:33.849Z,3.00
2018-08-25T15:34:02.063Z,1.90
2018-08-25T15:36:30.308Z,1.70
2018-08-25T15:38:58.555Z,2.00
2018-08-25T15:41:26.828Z,3.00
2018-08-25T15:43:55.107Z,2.50
2018-08-25T15:46:23.424Z,1.90
2018-08-25T15:48:51.682Z,2.45
2018-08-25T15:51:21.782Z,1.83
2018-08-25T15:53:50.039Z,3.03
2018-08-25T15:56:18.341Z,2.17
2018-08-25T15:58:46.609Z,2.37
2018-08-25T16:01:14.888Z,2.33
2018-08-25T16:03:43.270Z,2.33
2018-08-25T16:06:11.610Z,2.63
2018-08-25T16:08:39.869Z,2.57
2018-08-25T16:11:08.071Z,2.37
2018-08-25T16:13:36.329Z,1.93
2018-08-25T16:16:04.670Z,1.10
2018-08-25T16:18:32.860Z,1.80
2018-08-25T16:21:01.035Z,2.07
2018-08-25T16:23:29.220Z,1.60
2018-08-25T16:25:57.955Z,2.20
2018-08-25T16:28:26.270Z,1.77
2018-08-25T16:30:54.548Z,2.63
2018-08-25T16:33:22.888Z,2.80
2018-08-25T16:35:51.061Z,2.23
2018-08-25T16:38:19.392Z,2.47
2018-08-25T16:40:47.631Z,1.32
2018-08-25T16:43:15.826Z,1.40
2018-08-25T16:45:44.177Z,1.17
2018-08-25T16:48:12.530Z,1.55
2018-08-25T16:50:40.841Z,1.77
2018-08-25T16:53:09.055Z,2.93
2018-08-25T16:55:37.442Z,5.35
2018-08-25T16:58:05.894Z,1.77
2018-08-25T17:00:34.179Z,4.42
2018-08-25T17:03:02.483Z,2.83
2018-08-25T17:05:30.732Z,1.83
2018-08-25T17:07:59.075Z,1.80
2018-08-25T17:10:27.385Z,1.40
2018-08-25T17:12:56.085Z,1.37
2018-08-25T17:15:24.355Z,1.20
2018-08-25T17:17:52.628Z,2.30
2018-08-25T17:20:20.906Z,1.17
2018-08-25T17:22:49.183Z,1.70
2018-08-25T17:25:17.464Z,2.00
2018-08-25T17:27:45.727Z,2.75
2018-08-25T17:30:14.017Z,3.40
2018-08-25T17:32:42.321Z,3.97
2018-08-25T17:35:10.534Z,2.25
2018-08-25T17:37:38.854Z,1.47
2018-08-25T17:40:07.235Z,2.63
2018-08-25T17:42:35.627Z,2.93
2018-08-25T17:45:04.011Z,3.33
2018-08-25T17:47:32.364Z,7.00
2018-08-25T17:50:00.639Z,3.72
2018-08-25T17:52:29.012Z,11.67
2018-08-25T17:54:57.596Z,3.40
2018-08-25T17:57:25.960Z,2.57
2018-08-25T17:59:54.150Z,2.83
2018-08-25T18:02:23.044Z,2.90
2018-08-25T18:04:53.290Z,2.70
2018-08-25T18:07:21.555Z,2.40
2018-08-25T18:09:49.814Z,1.63
2018-08-25T18:12:18.087Z,3.15
2018-08-25T18:14:46.424Z,2.30
2018-08-25T18:17:14.647Z,2.00
2018-08-25T18:19:42.940Z,1.70
2018-08-25T18:22:11.202Z,2.73
2018-08-25T18:24:39.508Z,1.60
2018-08-25T18:27:07.742Z,2.22
2018-08-25T18:29:35.934Z,2.30
2018-08-25T18:32:04.183Z,1.50
2018-08-25T18:34:32.375Z,2.20
2018-08-25T18:37:00.623Z,2.10
2018-08-25T18:39:28.827Z,2.00
2018-08-25T18:41:57.033Z,7.22
2018-08-25T18:44:25.292Z,6.53
2018-08-25T18:46:53.486Z,8.17
2018-08-25T18:49:21.809Z,7.58
2018-08-25T18:51:50.013Z,4.83
2018-08-25T18:54:18.258Z,5.27
2018-08-25T18:56:46.526Z,5.03
2018-08-25T18:59:14.748Z,3.20
2018-08-25T19:01:43.038Z,9.53
2018-08-25T19:04:11.231Z,2.72
2018-08-25T19:06:39.468Z,6.70
2018-08-25T19:09:07.939Z,4.53
2018-08-25T19:11:36.232Z,5.37
2018-08-25T19:14:04.499Z,5.20
2018-08-25T19:16:32.752Z,9.33
2018-08-25T19:19:01.077Z,5.13
2018-08-25T19:21:29.264Z,5.83
2018-08-25T19:23:57.462Z,3.20
2018-08-25T19:26:25.988Z,4.60
2018-08-25T19:28:54.400Z,3.30
2018-08-25T19:31:22.699Z,3.80
2018-08-25T19:33:51.213Z,3.17
2018-08-25T19:36:19.588Z,3.10
2018-08-25T19:38:48.384Z,2.40
2018-08-25T19:41:16.821Z,2.50
2018-08-25T19:43:45.043Z,1.75
2018-08-25T19:46:13.295Z,1.83
2018-08-25T19:48:41.688Z,3.27
2018-08-25T19:51:09.946Z,1.40
2018-08-25T19:53:38.219Z,3.80
2018-08-25T19:56:06.485Z,1.97
2018-08-25T19:58:34.808Z,2.90
2018-08-25T20:01:03.162Z,2.90
2018-08-25T20:03:31.441Z,2.85
2018-08-25T20:05:59.731Z,2.95
2018-08-25T20:08:28.072Z,2.47
2018-08-25T20:10:56.270Z,2.58
2018-08-25T20:13:24.541Z,2.12
2018-08-25T20:15:52.781Z,3.00
2018-08-25T20:18:21.095Z,2.87
2018-08-25T20:20:49.508Z,3.00
2018-08-25T20:23:17.663Z,1.90
2018-08-25T20:25:45.886Z,3.10
2018-08-25T20:28:14.079Z,2.65
2018-08-25T20:30:42.529Z,3.03
2018-08-25T20:33:10.625Z,4.47
2018-08-25T20:35:38.852Z,2.80
2018-08-25T20:38:07.044Z,1.60
2018-08-25T20:40:35.207Z,3.17
2018-08-25T20:43:03.390Z,1.95
2018-08-25T20:45:31.728Z,1.77
2018-08-25T20:47:59.954Z,2.90
2018-08-25T20:50:28.172Z,2.67
2018-08-25T20:52:56.366Z,1.67
2018-08-25T20:55:24.524Z,3.60
2018-08-25T20:57:52.811Z,3.10
2018-08-25T21:00:48.703Z,2.73
2018-08-25T21:03:16.863Z,2.43
2018-08-25T21:05:45.079Z,2.33
2018-08-25T21:08:13.284Z,4.55
2018-08-25T21:10:42.542Z,2.50
2018-08-25T21:13:10.788Z,2.80
2018-08-25T21:15:38.976Z,2.30
2018-08-25T21:18:07.192Z,2.62
2018-08-25T21:20:35.669Z,1.80
2018-08-25T21:23:03.948Z,2.27
2018-08-25T21:25:32.335Z,3.97
2018-08-25T21:28:00.584Z,1.97
2018-08-25T21:30:28.783Z,1.93
2018-08-25T21:32:57.003Z,3.80
2018-08-25T21:35:25.269Z,3.05
2018-08-25T21:37:53.484Z,2.97
2018-08-25T21:40:21.769Z,3.40
2018-08-25T21:42:49.959Z,3.50
2018-08-25T21:45:18.224Z,2.93
2018-08-25T21:47:46.500Z,3.67
2018-08-25T21:50:14.864Z,2.72
2018-08-25T21:52:43.104Z,3.00
2018-08-25T21:55:11.298Z,2.77
2018-08-25T21:57:39.590Z,2.95
2018-08-25T22:00:08.489Z,2.57
2018-08-25T22:02:36.701Z,2.20
2018-08-25T22:05:04.893Z,4.73
2018-08-25T22:07:33.163Z,2.87
2018-08-25T22:10:01.359Z,5.50
2018-08-25T22:12:29.631Z,3.37
2018-08-25T22:14:57.816Z,2.67
2018-08-25T22:17:26.012Z,4.27
2018-08-25T22:19:54.225Z,3.17
2018-08-25T22:22:22.421Z,2.85
2018-08-25T22:24:50.621Z,4.63
2018-08-25T22:27:18.828Z,5.53
2018-08-25T22:29:47.078Z,4.55
2018-08-25T22:32:15.355Z,2.33
2018-08-25T22:34:43.621Z,2.87
2018-08-25T22:37:11.952Z,3.65
2018-08-25T22:39:40.187Z,3.43
2018-08-25T22:42:08.387Z,3.30
2018-08-25T22:44:36.652Z,3.40
2018-08-25T22:47:05.054Z,3.20
2018-08-25T22:49:33.230Z,4.40
2018-08-25T22:52:01.483Z,4.42
2018-08-25T22:54:29.713Z,3.73
2018-08-25T22:56:57.931Z,6.33
2018-08-25T22:59:26.185Z,3.62
2018-08-25T23:01:54.592Z,4.60
2018-08-25T23:04:22.795Z,3.75
2018-08-25T23:06:51.012Z,3.67
2018-08-25T23:09:19.197Z,4.50
2018-08-25T23:11:47.400Z,5.00
2018-08-25T23:14:15.616Z,5.53
2018-08-25T23:16:43.951Z,2.93
2018-08-25T23:19:12.210Z,3.33
2018-08-25T23:21:40.376Z,5.83
2018-08-25T23:24:08.588Z,5.43
2018-08-25T23:26:36.824Z,5.13
2018-08-25T23:29:05.229Z,3.58
2018-08-25T23:31:33.392Z,3.30
2018-08-25T23:34:01.643Z,3.97
2018-08-25T23:36:29.852Z,3.25
2018-08-25T23:38:58.095Z,3.57
2018-08-25T23:41:26.372Z,5.20
2018-08-25T23:43:54.567Z,5.30
2018-08-25T23:46:22.765Z,3.10
2018-08-25T23:48:50.981Z,4.37
2018-08-25T23:51:19.200Z,4.65
2018-08-25T23:53:47.462Z,6.03
2018-08-25T23:56:15.751Z,5.57
2018-08-25T23:58:44.031Z,4.25
